This is the latest recevied weather packets stored in our database for station/object K7MT-WX. If no packets are shown the sender has not sent any weather packets the latest 10 day(s).
| Time | Temp. | Humidity | Pressure | Rain* | Wind** | Luminosity | Snow |
|---|---|---|---|---|---|---|---|
| 1777977251 | 1.11° C | 68% | 1016.6 hPa | 0 mm | - | - | - |
| 1777976351 | 1.67° C | 66% | 1016.6 hPa | 0 mm | - | - | - |
| 1777975451 | 1.67° C | 69% | 1016.5 hPa | 0 mm | - | - | - |
| 1777974551 | 1.67° C | 67% | 1016.5 hPa | 0 mm | - | - | - |
| 1777973651 | 1.67° C | 67% | 1016.2 hPa | 0 mm | - | - | - |
| 1777972751 | 1.11° C | 69% | 1016.2 hPa | 0 mm | - | - | - |
| 1777971851 | 1.11° C | 68% | 1016.3 hPa | 0 mm | - | - | - |
| 1777970951 | 1.11° C | 67% | 1016.3 hPa | 0 mm | - | - | - |
| 1777970051 | 1.67° C | 67% | 1016.3 hPa | 0 mm | - | - | - |
| 1777969151 | 1.67° C | 65% | 1016.3 hPa | 0 mm | - | - | - |
| 1777968251 | 2.22° C | 65% | 1016.4 hPa | 0 mm | - | - | - |
| 1777967351 | 2.22° C | 64% | 1016.3 hPa | 0 mm | - | - | - |
| 1777966451 | 2.78° C | 62% | 1016.2 hPa | 0 mm | - | - | - |
| 1777965551 | 2.78° C | 62% | 1016.2 hPa | 0 mm | - | - | - |
| 1777964651 | 2.78° C | 62% | 1016.2 hPa | 0 mm | - | - | - |
| 1777963751 | 2.78° C | 62% | 1016.2 hPa | 0 mm | - | - | - |
| 1777962851 | 3.33° C | 61% | 1016.2 hPa | 0 mm | - | - | - |
| 1777961951 | 3.89° C | 59% | 1016.2 hPa | 0 mm | - | - | - |
| 1777961051 | 5° C | 54% | 1016.2 hPa | 0 mm | - | - | - |
| 1777960151 | 5.56° C | 51% | 1016.1 hPa | 0 mm | - | - | - |
| 1777959251 | 5.56° C | 51% | 1016.1 hPa | 0 mm | - | - | - |
| 1777958351 | 5.56° C | 52% | 1016.2 hPa | 0 mm | - | - | - |
| 1777957451 | 5.56° C | 52% | 1016.2 hPa | 0 mm | - | - | - |
| 1777956551 | 5.56° C | 53% | 1016.2 hPa | 0 mm | - | - | - |
| 1777955651 | 7.22° C | 46% | 1016.1 hPa | 0 mm | - | - | - |
* Rain latest hour (hover to see other rain measurements)
** Current wind speed in m/s (hover to see current wind gust speed)